Accueil
METAR-TAF:

METAR-TAF

Aéroports :

Yankton, Dakota du Sud, États-Unis

latitude: 42-55N, longitude: 097-23W, altitude: 398 m

Observation

Le bulletin a été fait il y a 16 minutes, à 21:56 UTC
Vent 6 kt de nord/nord-ouest
Température 12°C
Humidité 58%
Pression 1005 hPa
Visibilité: 16.1 km
Nuages fragmentés à une hauteur de 4500 ft

METAR: KYKN 202156Z AUTO 33006KT 10SM BKN045 12/04 A2969 RMK AO2 SLP071 T01220039

Heure: 16:12 (22:12 UTC)


TAF: absent

Observations et prévisions météorologiques de plus de 4000 aéroports (messages METAR et TAF).

Les stations disponibles sont représentées par des disques jaunes et rouges sur la carte.

Passer la souris dessus pour voir le nom de la station.

Cliquer dessus pour voir les observations et prévisions météorologiques.

Pour changer de carte: cliquez sur les boutons verts avec une croix noire pour zoomer, sur le bouton vert avec un tiret pour effectuer un zoom arrière, ou sur les flèches vertes pour les cartes adjacentes.


METAR-TAF: